createdAt,value
2018-10-19T00:01:22.636Z,8.90
2018-10-19T00:03:58.635Z,8.90
2018-10-19T00:06:34.083Z,8.80
2018-10-19T00:09:10.631Z,8.80
2018-10-19T00:11:44.765Z,8.80
2018-10-19T00:14:24.919Z,8.70
2018-10-19T00:17:01.351Z,8.50
2018-10-19T00:19:43.340Z,8.60
2018-10-19T00:22:28.479Z,8.60
2018-10-19T00:25:03.631Z,8.50
2018-10-19T00:27:38.964Z,8.50
2018-10-19T00:30:13.974Z,8.50
2018-10-19T00:32:49.130Z,8.50
2018-10-19T00:35:25.128Z,8.40
2018-10-19T00:38:00.753Z,8.40
2018-10-19T00:40:40.677Z,8.50
2018-10-19T00:43:19.804Z,8.50
2018-10-19T00:46:00.460Z,8.40
2018-10-19T00:48:38.872Z,8.40
2018-10-19T00:51:18.134Z,8.40
2018-10-19T00:53:55.974Z,8.30
2018-10-19T00:56:34.043Z,8.20
2018-10-19T00:59:20.477Z,8.10
2018-10-19T01:01:56.008Z,8.00
2018-10-19T01:04:31.713Z,8.10
2018-10-19T01:07:08.548Z,8.20
2018-10-19T01:09:47.003Z,8.20
2018-10-19T01:12:24.125Z,8.20
2018-10-19T01:15:01.733Z,8.10
2018-10-19T01:17:41.206Z,7.90
2018-10-19T01:20:20.797Z,7.90
2018-10-19T01:22:56.591Z,8.00
2018-10-19T01:25:32.655Z,7.90
2018-10-19T01:28:13.648Z,8.00
2018-10-19T01:30:49.678Z,8.00
2018-10-19T01:33:29.449Z,7.90
2018-10-19T01:36:10.613Z,7.80
2018-10-19T01:38:45.908Z,7.60
2018-10-19T01:41:21.558Z,7.60
2018-10-19T01:43:57.677Z,7.60
2018-10-19T01:46:34.095Z,7.60
2018-10-19T01:49:10.810Z,7.60
2018-10-19T01:51:48.237Z,7.60
2018-10-19T01:54:23.620Z,7.70
2018-10-19T01:56:59.625Z,7.70
2018-10-19T01:59:41.638Z,7.60
2018-10-19T02:02:20.157Z,7.50
2018-10-19T02:04:59.176Z,7.30
2018-10-19T02:07:38.145Z,7.30
2018-10-19T02:10:17.578Z,7.30
2018-10-19T02:12:59.350Z,7.40
2018-10-19T02:15:38.463Z,7.40
2018-10-19T02:18:13.695Z,7.30
2018-10-19T02:20:49.401Z,7.30
2018-10-19T02:23:25.426Z,7.30
2018-10-19T02:26:01.465Z,7.10
2018-10-19T02:28:40.502Z,7.20
2018-10-19T02:31:20.767Z,7.20
2018-10-19T02:34:10.023Z,7.00
2018-10-19T02:36:47.908Z,7.00
2018-10-19T02:39:24.866Z,7.00
2018-10-19T02:42:01.270Z,6.90
2018-10-19T02:44:36.734Z,6.90
2018-10-19T02:47:11.958Z,6.80
2018-10-19T02:49:51.580Z,6.90
2018-10-19T02:52:33.333Z,6.90
2018-10-19T02:55:19.601Z,7.00
2018-10-19T02:57:56.061Z,7.00
2018-10-19T03:00:32.463Z,7.00
2018-10-19T03:03:08.268Z,7.00
2018-10-19T03:05:43.172Z,6.90
2018-10-19T03:08:20.155Z,6.90
2018-10-19T03:10:56.984Z,6.80
2018-10-19T03:13:34.842Z,6.80
2018-10-19T03:16:10.414Z,6.70
2018-10-19T03:18:46.382Z,6.70
2018-10-19T03:21:20.639Z,6.70
2018-10-19T03:24:00.716Z,6.60
2018-10-19T03:26:42.044Z,6.50
2018-10-19T03:29:18.643Z,6.40
2018-10-19T03:31:54.659Z,6.40
2018-10-19T03:34:31.879Z,6.40
2018-10-19T03:37:06.774Z,6.40
2018-10-19T03:39:43.382Z,6.40
2018-10-19T03:42:18.357Z,6.50
2018-10-19T03:47:32.929Z,6.70
2018-10-19T03:50:07.996Z,6.50
2018-10-19T03:52:44.886Z,6.40
2018-10-19T03:55:25.352Z,6.40
2018-10-19T03:58:06.747Z,6.30
2018-10-19T04:00:45.478Z,6.30
2018-10-19T04:03:22.279Z,6.30
2018-10-19T04:05:58.473Z,6.20
2018-10-19T04:08:33.958Z,6.30
2018-10-19T04:11:09.523Z,6.30
2018-10-19T04:13:44.619Z,6.40
2018-10-19T04:16:20.212Z,6.40
2018-10-19T04:18:56.125Z,6.30
2018-10-19T04:21:31.773Z,6.20
2018-10-19T04:24:07.273Z,6.00
2018-10-19T04:26:43.707Z,6.20
2018-10-19T04:29:18.843Z,6.20
2018-10-19T04:34:30.848Z,6.10
2018-10-19T04:37:10.918Z,6.10
2018-10-19T04:39:46.757Z,6.20
2018-10-19T04:42:34.423Z,6.00
2018-10-19T04:45:11.190Z,6.00
2018-10-19T04:47:51.694Z,6.00
2018-10-19T04:50:26.847Z,6.00
2018-10-19T04:53:06.151Z,5.90
2018-10-19T04:55:40.939Z,6.00
2018-10-19T04:58:21.581Z,5.90
2018-10-19T05:00:58.033Z,5.90
2018-10-19T05:03:35.151Z,6.00
2018-10-19T05:06:11.772Z,6.00
2018-10-19T05:08:53.476Z,5.80
2018-10-19T05:11:34.787Z,5.80
2018-10-19T05:14:12.909Z,5.70
2018-10-19T05:16:47.693Z,5.70
2018-10-19T05:19:26.198Z,5.70
2018-10-19T05:22:01.369Z,5.70
2018-10-19T05:24:37.013Z,5.70
2018-10-19T05:27:14.822Z,5.70
2018-10-19T05:29:50.408Z,5.70
2018-10-19T05:32:25.321Z,5.70
2018-10-19T05:35:06.454Z,5.70
2018-10-19T05:37:42.054Z,5.70
2018-10-19T05:40:18.459Z,5.70
2018-10-19T05:42:54.588Z,5.70
2018-10-19T05:45:32.523Z,5.70
2018-10-19T05:48:19.098Z,5.80
2018-10-19T05:50:57.445Z,5.80
2018-10-19T05:53:36.035Z,5.80
2018-10-19T05:56:11.046Z,5.80
2018-10-19T05:58:45.715Z,5.70
2018-10-19T06:01:20.432Z,5.50
2018-10-19T06:03:55.642Z,5.50
2018-10-19T06:06:33.491Z,5.50
2018-10-19T06:09:10.285Z,5.40
2018-10-19T06:11:45.031Z,5.40
2018-10-19T06:14:20.007Z,5.40
2018-10-19T06:16:55.278Z,5.40
2018-10-19T06:19:33.519Z,5.30
2018-10-19T06:22:09.285Z,5.40
2018-10-19T06:24:44.913Z,5.60
2018-10-19T06:27:20.297Z,5.60
2018-10-19T06:29:55.489Z,5.50
2018-10-19T06:32:34.071Z,5.60
2018-10-19T06:35:15.251Z,5.70
2018-10-19T06:37:51.323Z,5.90
2018-10-19T06:40:30.022Z,6.00
2018-10-19T06:43:09.523Z,6.20
2018-10-19T06:45:46.487Z,6.40
2018-10-19T06:48:22.240Z,6.40
2018-10-19T06:50:59.634Z,6.50
2018-10-19T06:54:06.756Z,6.60
2018-10-19T06:56:42.208Z,6.70
2018-10-19T06:59:18.693Z,6.90
2018-10-19T07:01:53.876Z,7.00
2018-10-19T07:04:28.465Z,7.10
2018-10-19T07:07:03.271Z,7.30
2018-10-19T07:09:38.112Z,7.40
2018-10-19T07:12:12.865Z,7.70
2018-10-19T07:14:47.715Z,7.80
2018-10-19T07:17:22.596Z,8.00
2018-10-19T07:19:58.926Z,8.30
2018-10-19T07:22:36.303Z,8.40
2018-10-19T07:25:10.969Z,8.60
2018-10-19T07:27:45.706Z,8.70
2018-10-19T07:30:48.308Z,8.90
2018-10-19T07:33:23.172Z,8.90
2018-10-19T07:35:57.746Z,9.00
2018-10-19T07:38:32.522Z,9.00
2018-10-19T07:41:07.262Z,9.10
2018-10-19T07:43:42.954Z,9.20
2018-10-19T07:46:22.984Z,9.40
2018-10-19T07:48:59.281Z,9.60
2018-10-19T07:51:44.902Z,9.70
2018-10-19T07:54:19.711Z,9.80
2018-10-19T07:56:54.416Z,9.80
2018-10-19T07:59:28.987Z,10.20
2018-10-19T08:02:05.334Z,10.40
2018-10-19T08:04:41.899Z,10.60
2018-10-19T08:07:16.816Z,11.00
2018-10-19T08:09:52.510Z,11.10
2018-10-19T08:12:28.153Z,11.10
2018-10-19T08:15:03.835Z,11.10
2018-10-19T08:17:44.988Z,11.30
2018-10-19T08:20:22.233Z,11.50
2018-10-19T08:22:58.320Z,11.90
2018-10-19T08:25:33.163Z,12.10
2018-10-19T08:28:07.783Z,12.00
2018-10-19T08:30:42.444Z,12.00
2018-10-19T08:33:17.473Z,12.10
2018-10-19T08:35:52.043Z,12.50
2018-10-19T08:38:26.737Z,12.60
2018-10-19T08:41:01.330Z,12.80
2018-10-19T08:43:37.417Z,13.30
2018-10-19T08:46:17.545Z,13.50
2018-10-19T08:48:53.909Z,13.70
2018-10-19T08:51:28.267Z,13.40
2018-10-19T08:54:03.114Z,13.60
2018-10-19T08:56:38.502Z,13.80
2018-10-19T08:59:13.737Z,13.90
2018-10-19T09:01:49.219Z,14.10
2018-10-19T09:04:23.783Z,14.10
2018-10-19T09:06:58.526Z,14.10
2018-10-19T09:09:33.022Z,14.20
2018-10-19T09:12:10.032Z,14.20
2018-10-19T09:14:52.140Z,14.40
2018-10-19T09:17:27.011Z,14.60
2018-10-19T09:20:02.924Z,14.90
2018-10-19T09:22:37.555Z,14.80
2018-10-19T09:25:15.146Z,15.00
2018-10-19T09:27:50.727Z,15.10
2018-10-19T09:30:27.961Z,16.10
2018-10-19T09:33:03.503Z,16.60
2018-10-19T09:35:38.216Z,17.20
2018-10-19T09:38:14.217Z,17.50
2018-10-19T09:40:53.090Z,17.70
2018-10-19T09:43:28.522Z,18.30
2018-10-19T09:46:04.182Z,18.20
2018-10-19T09:48:40.331Z,18.60
2018-10-19T09:51:15.496Z,18.90
2018-10-19T09:53:50.058Z,18.80
2018-10-19T09:56:42.354Z,18.70
2018-10-19T09:59:21.016Z,18.60
2018-10-19T10:01:55.662Z,18.50
2018-10-19T10:04:30.277Z,18.90
2018-10-19T10:07:04.788Z,19.30
2018-10-19T10:09:44.143Z,19.10
2018-10-19T10:12:18.510Z,19.40
2018-10-19T10:14:54.142Z,20.10
2018-10-19T10:17:28.717Z,20.20
2018-10-19T10:20:03.196Z,20.10
2018-10-19T10:22:42.472Z,19.80
2018-10-19T10:25:17.460Z,19.80
2018-10-19T10:27:51.985Z,20.20
2018-10-19T10:30:26.764Z,20.40
2018-10-19T10:33:03.255Z,20.50
2018-10-19T10:35:39.752Z,20.50
2018-10-19T10:38:14.475Z,20.50
2018-10-19T10:40:49.069Z,20.80
2018-10-19T10:43:24.719Z,20.80
2018-10-19T10:45:59.419Z,21.20
2018-10-19T10:48:35.016Z,21.10
2018-10-19T10:51:10.886Z,21.10
2018-10-19T10:53:46.912Z,20.40
2018-10-19T10:56:23.531Z,20.30
2018-10-19T10:58:59.044Z,20.30
2018-10-19T11:01:38.250Z,20.60
2018-10-19T11:04:16.539Z,20.40
2018-10-19T11:06:52.047Z,20.30
2018-10-19T11:09:29.598Z,21.00
2018-10-19T11:12:08.418Z,21.70
2018-10-19T11:14:47.191Z,21.60
2018-10-19T11:17:22.866Z,21.30
2018-10-19T11:19:57.363Z,21.10
2018-10-19T11:22:33.402Z,21.50
2018-10-19T11:25:08.057Z,21.70
2018-10-19T11:27:45.330Z,21.70
2018-10-19T11:30:19.788Z,21.50
2018-10-19T11:32:54.549Z,21.60
2018-10-19T11:35:29.029Z,21.90
2018-10-19T11:38:05.205Z,21.60
2018-10-19T11:40:40.835Z,21.60
2018-10-19T11:43:15.384Z,21.40
2018-10-19T11:45:49.841Z,21.30
2018-10-19T11:48:24.297Z,21.50
2018-10-19T11:50:59.115Z,21.50
2018-10-19T11:53:34.816Z,21.30
2018-10-19T11:56:09.385Z,21.30
2018-10-19T11:58:45.830Z,21.40
2018-10-19T12:01:20.432Z,21.30
2018-10-19T12:03:55.290Z,21.10
2018-10-19T12:06:34.504Z,20.90
2018-10-19T12:09:09.624Z,21.50
2018-10-19T12:11:47.876Z,21.60
2018-10-19T12:14:23.342Z,21.70
2018-10-19T12:16:59.324Z,21.60
2018-10-19T12:19:33.604Z,21.70
2018-10-19T12:22:09.811Z,22.20
2018-10-19T12:24:47.716Z,22.70
2018-10-19T12:27:24.798Z,22.80
2018-10-19T12:30:01.161Z,22.80
2018-10-19T12:32:35.824Z,23.00
2018-10-19T12:35:11.951Z,23.10
2018-10-19T12:37:47.315Z,22.80
2018-10-19T12:40:22.560Z,22.60
2018-10-19T12:42:57.232Z,22.80
2018-10-19T12:46:41.949Z,22.80
2018-10-19T12:49:22.503Z,23.00
2018-10-19T12:51:58.368Z,22.80
2018-10-19T12:54:32.921Z,23.10
2018-10-19T12:57:07.459Z,23.30
2018-10-19T12:59:43.112Z,23.40
2018-10-19T13:02:20.730Z,23.40
2018-10-19T13:04:55.663Z,23.60
2018-10-19T13:07:30.088Z,23.70
2018-10-19T13:10:09.753Z,23.70
2018-10-19T13:12:44.249Z,23.90
2018-10-19T13:15:21.234Z,24.30
2018-10-19T13:17:56.203Z,24.10
2018-10-19T13:20:32.681Z,24.00
2018-10-19T13:23:08.196Z,24.50
2018-10-19T13:25:58.055Z,24.40
2018-10-19T13:28:35.003Z,24.40
2018-10-19T13:31:21.561Z,24.10
2018-10-19T13:34:08.623Z,23.50
2018-10-19T13:36:43.351Z,23.00
2018-10-19T13:39:17.820Z,23.10
2018-10-19T13:41:54.433Z,23.30
2018-10-19T13:44:29.186Z,23.30
2018-10-19T13:47:04.017Z,23.40
2018-10-19T13:49:38.805Z,23.80
2018-10-19T13:52:13.459Z,23.50
2018-10-19T13:54:48.006Z,23.20
2018-10-19T13:57:22.439Z,23.20
2018-10-19T13:59:58.957Z,22.90
2018-10-19T14:02:34.634Z,23.00
2018-10-19T14:05:11.296Z,23.50
2018-10-19T14:07:46.721Z,23.20
2018-10-19T14:10:24.757Z,22.80
2018-10-19T14:13:01.683Z,22.80
2018-10-19T14:15:37.668Z,22.80
2018-10-19T14:18:15.637Z,22.90
2018-10-19T14:20:49.981Z,22.80
2018-10-19T14:23:24.492Z,22.60
2018-10-19T14:26:02.507Z,22.50
2018-10-19T14:28:40.039Z,22.30
2018-10-19T14:31:14.908Z,22.50
2018-10-19T14:33:52.070Z,22.90
2018-10-19T14:36:29.320Z,23.30
2018-10-19T14:39:10.803Z,23.60
2018-10-19T14:41:50.451Z,23.50
2018-10-19T14:44:27.897Z,23.80
2018-10-19T14:47:02.506Z,24.00
2018-10-19T14:49:36.893Z,23.80
2018-10-19T14:52:11.459Z,23.50
2018-10-19T14:54:46.058Z,23.40
2018-10-19T14:57:20.622Z,23.10
2018-10-19T14:59:55.081Z,23.00
2018-10-19T15:02:29.468Z,22.80
2018-10-19T15:05:06.528Z,22.60
2018-10-19T15:07:41.225Z,22.50
2018-10-19T15:10:17.470Z,22.70
2018-10-19T15:12:51.744Z,22.60
2018-10-19T15:15:26.233Z,22.60
2018-10-19T15:18:01.705Z,22.90
2018-10-19T15:20:36.255Z,22.80
2018-10-19T15:23:11.172Z,22.90
2018-10-19T15:25:46.753Z,23.10
2018-10-19T15:28:21.283Z,22.90
2018-10-19T15:30:55.831Z,22.70
2018-10-19T15:33:30.971Z,22.50
2018-10-19T15:36:08.984Z,22.00
2018-10-19T15:38:44.861Z,21.50
2018-10-19T15:41:20.017Z,21.10
2018-10-19T15:43:56.730Z,20.90
2018-10-19T15:46:32.158Z,20.80
2018-10-19T15:49:08.425Z,20.50
2018-10-19T15:51:44.091Z,20.10
2018-10-19T15:54:19.429Z,19.90
2018-10-19T15:56:54.230Z,19.70
2018-10-19T15:59:29.041Z,19.60
2018-10-19T16:02:03.845Z,19.30
2018-10-19T16:04:38.505Z,19.00
2018-10-19T16:07:14.015Z,18.80
2018-10-19T16:09:48.877Z,18.60
2018-10-19T16:12:24.883Z,18.20
2018-10-19T16:15:01.220Z,18.00
2018-10-19T16:17:37.556Z,17.80
2018-10-19T16:20:16.342Z,17.60
2018-10-19T16:22:51.218Z,17.30
2018-10-19T16:25:27.102Z,17.10
2018-10-19T16:28:03.397Z,16.90
2018-10-19T16:30:40.000Z,16.70
2018-10-19T16:33:16.455Z,16.40
2018-10-19T16:35:50.862Z,16.10
2018-10-19T16:38:29.796Z,15.90
2018-10-19T16:41:08.714Z,15.70
2018-10-19T16:43:44.139Z,15.60
2018-10-19T16:46:19.775Z,15.50
2018-10-19T16:48:54.175Z,15.40
2018-10-19T16:51:28.633Z,15.30
2018-10-19T16:54:07.302Z,15.30
2018-10-19T16:56:43.920Z,15.20
2018-10-19T16:59:19.464Z,15.10
2018-10-19T17:01:54.630Z,15.00
2018-10-19T17:04:31.767Z,14.70
2018-10-19T17:07:08.223Z,14.60
2018-10-19T17:09:55.021Z,14.50
2018-10-19T17:12:48.535Z,14.30
2018-10-19T17:15:24.241Z,14.20
2018-10-19T17:18:01.016Z,14.10
2018-10-19T17:20:38.492Z,13.90
2018-10-19T17:23:16.796Z,13.90
2018-10-19T17:25:59.038Z,13.80
2018-10-19T17:28:34.298Z,13.80
2018-10-19T17:31:10.772Z,13.70
2018-10-19T17:33:50.548Z,13.60
2018-10-19T17:39:02.207Z,13.30
2018-10-19T17:41:37.380Z,13.00
2018-10-19T17:44:16.850Z,12.80
2018-10-19T17:46:55.018Z,12.90
2018-10-19T17:49:34.723Z,12.90
2018-10-19T17:52:10.261Z,12.80
2018-10-19T17:54:46.934Z,12.80
2018-10-19T17:57:22.605Z,12.70
2018-10-19T17:59:57.485Z,12.50
2018-10-19T18:02:32.292Z,12.50
2018-10-19T18:05:07.155Z,12.50
2018-10-19T18:07:41.669Z,12.40
2018-10-19T18:10:16.316Z,12.30
2018-10-19T18:12:50.974Z,12.20
2018-10-19T18:15:25.956Z,12.10
2018-10-19T18:18:01.035Z,12.00
2018-10-19T18:20:35.506Z,12.00
2018-10-19T18:23:10.523Z,12.00
2018-10-19T18:25:45.902Z,12.00
2018-10-19T18:28:21.152Z,11.80
2018-10-19T18:31:02.428Z,11.80
2018-10-19T18:33:39.190Z,11.70
2018-10-19T18:36:15.205Z,11.70
2018-10-19T18:38:52.298Z,11.40
2018-10-19T18:41:27.544Z,11.30
2018-10-19T18:44:05.053Z,11.30
2018-10-19T18:46:43.220Z,11.30
2018-10-19T18:49:17.867Z,11.40
2018-10-19T18:51:54.410Z,11.20
2018-10-19T18:54:31.362Z,11.10
2018-10-19T18:57:06.281Z,11.20
2018-10-19T18:59:42.378Z,11.20
2018-10-19T19:02:18.506Z,11.10
2018-10-19T19:05:13.758Z,11.00
2018-10-19T19:07:50.201Z,11.00
2018-10-19T19:10:25.866Z,10.90
2018-10-19T19:13:05.966Z,10.60
2018-10-19T19:15:43.418Z,10.50
2018-10-19T19:18:18.255Z,10.50
2018-10-19T19:20:54.205Z,10.50
2018-10-19T19:23:34.387Z,10.60
2018-10-19T19:26:10.048Z,10.60
2018-10-19T19:28:47.572Z,10.60
2018-10-19T19:31:22.002Z,10.50
2018-10-19T19:34:03.255Z,10.30
2018-10-19T19:36:37.701Z,10.20
2018-10-19T19:39:13.081Z,10.20
2018-10-19T19:42:02.611Z,10.40
2018-10-19T19:44:47.227Z,10.40
2018-10-19T19:47:28.990Z,10.50
2018-10-19T19:50:13.479Z,10.40
2018-10-19T19:52:59.906Z,10.20
2018-10-19T19:55:44.844Z,9.90
2018-10-19T19:58:20.769Z,9.70
2018-10-19T20:00:56.840Z,9.70
2018-10-19T20:03:48.557Z,9.70
2018-10-19T20:06:29.161Z,9.80
2018-10-19T20:09:06.280Z,9.70
2018-10-19T20:11:41.937Z,9.60
2018-10-19T20:14:16.785Z,9.60
2018-10-19T20:16:51.310Z,9.70
2018-10-19T20:19:27.708Z,9.70
2018-10-19T20:22:02.226Z,9.70
2018-10-19T20:24:38.089Z,9.60
2018-10-19T20:27:13.680Z,9.50
2018-10-19T20:29:48.311Z,9.50
2018-10-19T20:32:22.720Z,9.40
2018-10-19T20:34:57.458Z,9.30
2018-10-19T20:37:34.276Z,9.10
2018-10-19T20:40:11.037Z,9.20
2018-10-19T20:42:45.812Z,9.30
2018-10-19T20:45:20.714Z,9.50
2018-10-19T20:47:56.465Z,9.30
2018-10-19T20:50:33.138Z,9.20
2018-10-19T20:53:07.787Z,9.10
2018-10-19T20:55:42.420Z,9.10
2018-10-19T20:58:16.992Z,9.10
2018-10-19T21:00:51.729Z,9.20
2018-10-19T21:03:26.206Z,9.20
2018-10-19T21:06:00.898Z,9.10
2018-10-19T21:08:35.481Z,9.10
2018-10-19T21:11:12.152Z,9.10
2018-10-19T21:13:47.447Z,8.90
2018-10-19T21:16:22.656Z,8.80
2018-10-19T21:18:59.796Z,8.70
2018-10-19T21:21:35.157Z,8.80
2018-10-19T21:24:10.441Z,8.80
2018-10-19T21:26:44.971Z,8.70
2018-10-19T21:29:21.015Z,8.50
2018-10-19T21:31:55.533Z,8.50
2018-10-19T21:34:30.058Z,8.50
2018-10-19T21:37:05.016Z,8.60
2018-10-19T21:39:39.611Z,8.50
2018-10-19T21:42:14.172Z,8.50
2018-10-19T21:44:48.835Z,8.50
2018-10-19T21:47:23.379Z,8.30
2018-10-19T21:49:58.226Z,8.30
2018-10-19T21:52:32.840Z,8.30
2018-10-19T21:55:09.161Z,8.30
2018-10-19T21:57:43.927Z,8.20
2018-10-19T22:00:18.479Z,8.20
2018-10-19T22:02:52.860Z,8.10
2018-10-19T22:05:27.655Z,8.10
2018-10-19T22:08:02.227Z,8.20
2018-10-19T22:10:36.834Z,8.30
2018-10-19T22:13:12.193Z,8.20
2018-10-19T22:15:46.797Z,8.10
2018-10-19T22:18:21.139Z,8.10
2018-10-19T22:20:55.932Z,8.00
2018-10-19T22:23:30.680Z,8.10
2018-10-19T22:26:05.926Z,7.90
2018-10-19T22:28:40.662Z,7.90
2018-10-19T22:31:15.332Z,7.70
2018-10-19T22:33:49.701Z,7.60
2018-10-19T22:36:24.273Z,7.80
2018-10-19T22:38:59.590Z,7.60
2018-10-19T22:41:34.090Z,7.50
2018-10-19T22:44:08.442Z,7.40
2018-10-19T22:46:43.116Z,7.40
2018-10-19T22:49:17.685Z,7.40
2018-10-19T22:51:51.985Z,7.30
2018-10-19T22:54:26.826Z,7.50
2018-10-19T22:57:01.531Z,7.50
2018-10-19T22:59:35.959Z,7.40
2018-10-19T23:02:10.549Z,7.30
2018-10-19T23:04:45.146Z,7.30
2018-10-19T23:07:19.756Z,7.40
2018-10-19T23:09:54.397Z,7.50
2018-10-19T23:12:28.905Z,7.50
2018-10-19T23:15:03.628Z,7.40
2018-10-19T23:17:38.337Z,7.30
2018-10-19T23:20:12.931Z,7.30
2018-10-19T23:22:47.647Z,7.20
2018-10-19T23:25:22.122Z,7.10
2018-10-19T23:27:56.567Z,6.90
2018-10-19T23:30:31.490Z,7.00
2018-10-19T23:33:07.033Z,7.00
2018-10-19T23:35:41.962Z,7.00
2018-10-19T23:38:16.676Z,6.80
2018-10-19T23:40:51.111Z,6.80
2018-10-19T23:43:25.715Z,6.90
2018-10-19T23:46:00.440Z,6.80
2018-10-19T23:48:35.031Z,6.70
2018-10-19T23:51:09.540Z,6.90
2018-10-19T23:53:44.089Z,6.90
2018-10-19T23:56:18.818Z,6.90
2018-10-19T23:58:53.431Z,6.90
